sensor_id;sensor_type;location;lat;lon;timestamp;pressure;altitude;pressure_sealevel;temperature;humidity
22257;BME280;11297;42.686;23.374;2022-08-21T00:02:22;94474.25;;;23.92;66.45
22257;BME280;11297;42.686;23.374;2022-08-21T00:04:48;94463.63;;;23.96;66.13
22257;BME280;11297;42.686;23.374;2022-08-21T00:07:16;94466.63;;;23.98;66.05
22257;BME280;11297;42.686;23.374;2022-08-21T00:09:41;94458.09;;;24.13;65.30
22257;BME280;11297;42.686;23.374;2022-08-21T00:12:07;94456.88;;;24.21;64.87
22257;BME280;11297;42.686;23.374;2022-08-21T00:14:33;94443.50;;;24.28;64.65
22257;BME280;11297;42.686;23.374;2022-08-21T00:17:00;94449.50;;;24.35;64.88
22257;BME280;11297;42.686;23.374;2022-08-21T00:19:26;94441.94;;;24.30;64.51
22257;BME280;11297;42.686;23.374;2022-08-21T00:21:52;94452.72;;;24.50;64.08
22257;BME280;11297;42.686;23.374;2022-08-21T00:24:19;94445.72;;;24.62;63.26
22257;BME280;11297;42.686;23.374;2022-08-21T00:26:45;94439.63;;;24.65;62.99
22257;BME280;11297;42.686;23.374;2022-08-21T00:29:12;94444.00;;;24.75;63.13
22257;BME280;11297;42.686;23.374;2022-08-21T00:31:39;94437.47;;;24.83;62.31
22257;BME280;11297;42.686;23.374;2022-08-21T00:34:04;94436.09;;;24.98;62.38
22257;BME280;11297;42.686;23.374;2022-08-21T00:36:30;94428.81;;;25.02;61.76
22257;BME280;11297;42.686;23.374;2022-08-21T00:38:56;94438.31;;;25.03;61.87
22257;BME280;11297;42.686;23.374;2022-08-21T00:41:22;94427.81;;;25.19;61.80
22257;BME280;11297;42.686;23.374;2022-08-21T00:43:49;94447.91;;;25.20;61.52
22257;BME280;11297;42.686;23.374;2022-08-21T00:46:15;94440.53;;;25.31;61.33
22257;BME280;11297;42.686;23.374;2022-08-21T00:48:41;94445.06;;;25.34;60.62
22257;BME280;11297;42.686;23.374;2022-08-21T00:51:10;94441.09;;;25.42;60.68
22257;BME280;11297;42.686;23.374;2022-08-21T00:53:38;94454.09;;;25.36;61.10
22257;BME280;11297;42.686;23.374;2022-08-21T00:56:05;94453.78;;;25.34;61.22
22257;BME280;11297;42.686;23.374;2022-08-21T00:58:32;94446.06;;;25.17;61.45
22257;BME280;11297;42.686;23.374;2022-08-21T01:01:03;94433.41;;;25.24;61.91
22257;BME280;11297;42.686;23.374;2022-08-21T01:03:29;94428.56;;;25.19;61.72
22257;BME280;11297;42.686;23.374;2022-08-21T01:05:55;94428.66;;;25.12;61.35
22257;BME280;11297;42.686;23.374;2022-08-21T01:08:21;94434.38;;;25.11;61.66
22257;BME280;11297;42.686;23.374;2022-08-21T01:10:47;94425.25;;;25.12;62.05
22257;BME280;11297;42.686;23.374;2022-08-21T01:13:14;94422.81;;;24.98;62.11
22257;BME280;11297;42.686;23.374;2022-08-21T01:15:43;94425.38;;;25.05;62.11
22257;BME280;11297;42.686;23.374;2022-08-21T01:18:11;94420.84;;;25.02;62.51
22257;BME280;11297;42.686;23.374;2022-08-21T01:20:42;94422.69;;;25.05;62.19
22257;BME280;11297;42.686;23.374;2022-08-21T01:23:08;94420.84;;;25.02;62.62
22257;BME280;11297;42.686;23.374;2022-08-21T01:25:34;94430.47;;;24.93;63.13
22257;BME280;11297;42.686;23.374;2022-08-21T01:28:04;94422.16;;;24.91;62.38
22257;BME280;11297;42.686;23.374;2022-08-21T01:30:35;94412.56;;;24.97;61.89
22257;BME280;11297;42.686;23.374;2022-08-21T01:33:01;94418.09;;;25.09;61.60
22257;BME280;11297;42.686;23.374;2022-08-21T01:35:26;94404.91;;;25.02;62.13
22257;BME280;11297;42.686;23.374;2022-08-21T01:37:52;94414.38;;;25.03;61.79
22257;BME280;11297;42.686;23.374;2022-08-21T01:40:18;94413.06;;;24.88;61.79
22257;BME280;11297;42.686;23.374;2022-08-21T01:42:44;94417.03;;;24.77;62.85
22257;BME280;11297;42.686;23.374;2022-08-21T01:45:11;94424.72;;;24.45;63.02
22257;BME280;11297;42.686;23.374;2022-08-21T01:47:37;94434.72;;;24.34;64.08
22257;BME280;11297;42.686;23.374;2022-08-21T01:50:07;94429.97;;;24.49;63.34
22257;BME280;11297;42.686;23.374;2022-08-21T01:52:33;94423.72;;;24.62;63.13
22257;BME280;11297;42.686;23.374;2022-08-21T01:54:58;94426.88;;;24.80;62.31
22257;BME280;11297;42.686;23.374;2022-08-21T01:57:24;94425.22;;;24.89;61.87
22257;BME280;11297;42.686;23.374;2022-08-21T01:59:49;94428.09;;;25.02;61.51
22257;BME280;11297;42.686;23.374;2022-08-21T02:02:15;94431.09;;;25.03;61.79
22257;BME280;11297;42.686;23.374;2022-08-21T02:04:40;94435.31;;;25.01;61.86
22257;BME280;11297;42.686;23.374;2022-08-21T02:07:06;94430.19;;;25.13;61.73
22257;BME280;11297;42.686;23.374;2022-08-21T02:09:31;94433.81;;;25.23;60.75
22257;BME280;11297;42.686;23.374;2022-08-21T02:11:57;94440.66;;;25.24;60.74
22257;BME280;11297;42.686;23.374;2022-08-21T02:14:22;94441.75;;;25.26;61.24
22257;BME280;11297;42.686;23.374;2022-08-21T02:16:48;94439.75;;;25.30;60.84
22257;BME280;11297;42.686;23.374;2022-08-21T02:19:15;94436.53;;;25.42;60.41
22257;BME280;11297;42.686;23.374;2022-08-21T02:21:41;94444.03;;;25.47;59.67
22257;BME280;11297;42.686;23.374;2022-08-21T02:24:07;94442.06;;;25.51;60.01
22257;BME280;11297;42.686;23.374;2022-08-21T02:26:33;94437.22;;;25.46;59.51
22257;BME280;11297;42.686;23.374;2022-08-21T02:28:59;94441.22;;;25.35;60.13
22257;BME280;11297;42.686;23.374;2022-08-21T02:31:24;94448.03;;;25.36;59.71
22257;BME280;11297;42.686;23.374;2022-08-21T02:33:51;94449.13;;;25.38;59.89
22257;BME280;11297;42.686;23.374;2022-08-21T02:36:17;94453.13;;;25.49;59.51
22257;BME280;11297;42.686;23.374;2022-08-21T02:38:43;94451.16;;;25.53;59.59
22257;BME280;11297;42.686;23.374;2022-08-21T02:41:13;94440.97;;;25.48;59.55
22257;BME280;11297;42.686;23.374;2022-08-21T02:43:39;94445.06;;;25.34;60.39
22257;BME280;11297;42.686;23.374;2022-08-21T02:46:06;94439.91;;;25.23;59.81
22257;BME280;11297;42.686;23.374;2022-08-21T02:48:33;94443.88;;;25.12;60.81
22257;BME280;11297;42.686;23.374;2022-08-21T02:51:05;94438.91;;;25.14;60.68
22257;BME280;11297;42.686;23.374;2022-08-21T02:53:31;94446.47;;;25.15;60.28
22257;BME280;11297;42.686;23.374;2022-08-21T02:56:00;94455.25;;;25.12;60.75
22257;BME280;11297;42.686;23.374;2022-08-21T02:58:30;94451.78;;;25.15;60.09
22257;BME280;11297;42.686;23.374;2022-08-21T03:00:57;94455.72;;;25.07;60.40
22257;BME280;11297;42.686;23.374;2022-08-21T03:03:23;94446.69;;;25.02;61.17
22257;BME280;11297;42.686;23.374;2022-08-21T03:05:49;94447.81;;;25.04;61.13
22257;BME280;11297;42.686;23.374;2022-08-21T03:08:15;94453.94;;;25.01;61.60
22257;BME280;11297;42.686;23.374;2022-08-21T03:10:43;94453.66;;;24.92;61.47
22257;BME280;11297;42.686;23.374;2022-08-21T03:13:09;94456.34;;;24.89;61.76
22257;BME280;11297;42.686;23.374;2022-08-21T03:15:35;94451.34;;;24.94;61.66
22257;BME280;11297;42.686;23.374;2022-08-21T03:18:01;94457.28;;;25.05;61.34
22257;BME280;11297;42.686;23.374;2022-08-21T03:20:28;94452.72;;;25.05;61.42
22257;BME280;11297;42.686;23.374;2022-08-21T03:22:54;94447.66;;;25.14;60.88
22257;BME280;11297;42.686;23.374;2022-08-21T03:25:25;94447.09;;;25.00;61.19
22257;BME280;11297;42.686;23.374;2022-08-21T03:27:51;94449.03;;;24.96;61.57
22257;BME280;11297;42.686;23.374;2022-08-21T03:30:18;94457.41;;;24.95;61.45
22257;BME280;11297;42.686;23.374;2022-08-21T03:32:45;94461.22;;;24.94;62.04
22257;BME280;11297;42.686;23.374;2022-08-21T03:35:12;94452.47;;;24.93;61.43
22257;BME280;11297;42.686;23.374;2022-08-21T03:37:38;94453.59;;;24.96;61.44
22257;BME280;11297;42.686;23.374;2022-08-21T03:40:06;94450.88;;;25.02;61.71
22257;BME280;11297;42.686;23.374;2022-08-21T03:42:32;94449.03;;;24.96;61.88
22257;BME280;11297;42.686;23.374;2022-08-21T03:44:58;94457.38;;;24.98;61.37
22257;BME280;11297;42.686;23.374;2022-08-21T03:47:23;94451.44;;;24.87;61.92
22257;BME280;11297;42.686;23.374;2022-08-21T03:49:49;94456.31;;;24.92;61.76
22257;BME280;11297;42.686;23.374;2022-08-21T03:52:14;94457.13;;;24.89;61.17
22257;BME280;11297;42.686;23.374;2022-08-21T03:54:41;94454.91;;;24.84;61.76
22257;BME280;11297;42.686;23.374;2022-08-21T03:57:07;94459.59;;;24.47;62.43
22257;BME280;11297;42.686;23.374;2022-08-21T03:59:34;94460.19;;;24.28;63.25
22257;BME280;11297;42.686;23.374;2022-08-21T04:02:03;94474.91;;;24.36;63.05
22257;BME280;11297;42.686;23.374;2022-08-21T04:04:29;94467.75;;;24.33;62.73
22257;BME280;11297;42.686;23.374;2022-08-21T04:06:56;94469.59;;;24.36;62.20
22257;BME280;11297;42.686;23.374;2022-08-21T04:09:22;94471.16;;;24.30;63.11
22257;BME280;11297;42.686;23.374;2022-08-21T04:11:48;94472.56;;;24.08;63.38
22257;BME280;11297;42.686;23.374;2022-08-21T04:14:15;94470.06;;;23.95;64.38
22257;BME280;11297;42.686;23.374;2022-08-21T04:16:41;94473.31;;;24.09;64.28
22257;BME280;11297;42.686;23.374;2022-08-21T04:19:07;94474.66;;;23.91;64.41
22257;BME280;11297;42.686;23.374;2022-08-21T04:21:33;94468.88;;;23.99;63.69
22257;BME280;11297;42.686;23.374;2022-08-21T04:23:59;94460.25;;;23.92;64.28
22257;BME280;11297;42.686;23.374;2022-08-21T04:26:25;94454.41;;;24.03;63.77
22257;BME280;11297;42.686;23.374;2022-08-21T04:28:51;94463.53;;;24.02;64.46
22257;BME280;11297;42.686;23.374;2022-08-21T04:31:17;94469.88;;;24.12;63.67
22257;BME280;11297;42.686;23.374;2022-08-21T04:33:43;94466.69;;;24.24;63.46
22257;BME280;11297;42.686;23.374;2022-08-21T04:36:10;94465.50;;;24.28;63.33
22257;BME280;11297;42.686;23.374;2022-08-21T04:38:36;94458.59;;;24.38;63.17
22257;BME280;11297;42.686;23.374;2022-08-21T04:41:01;94457.00;;;24.44;62.62
22257;BME280;11297;42.686;23.374;2022-08-21T04:43:27;94457.34;;;24.46;63.10
22257;BME280;11297;42.686;23.374;2022-08-21T04:45:53;94451.72;;;24.40;63.09
22257;BME280;11297;42.686;23.374;2022-08-21T04:48:21;94461.25;;;24.38;62.93
22257;BME280;11297;42.686;23.374;2022-08-21T04:56:04;94467.63;;;23.74;64.95
22257;BME280;11297;42.686;23.374;2022-08-21T04:58:34;94467.84;;;23.50;66.65
22257;BME280;11297;42.686;23.374;2022-08-21T05:01:00;94468.25;;;23.48;66.52
22257;BME280;11297;42.686;23.374;2022-08-21T05:03:27;94454.59;;;23.50;67.28
22257;BME280;11297;42.686;23.374;2022-08-21T05:05:53;94458.50;;;23.78;65.95
22257;BME280;11297;42.686;23.374;2022-08-21T05:08:21;94457.75;;;24.11;65.62
22257;BME280;11297;42.686;23.374;2022-08-21T05:10:49;94452.91;;;24.32;63.84
22257;BME280;11297;42.686;23.374;2022-08-21T05:13:15;94459.59;;;24.47;64.20
22257;BME280;11297;42.686;23.374;2022-08-21T05:15:41;94458.63;;;24.64;63.52
22257;BME280;11297;42.686;23.374;2022-08-21T05:18:07;94461.41;;;24.80;62.42
22257;BME280;11297;42.686;23.374;2022-08-21T05:20:33;94465.16;;;25.12;62.41
22257;BME280;11297;42.686;23.374;2022-08-21T05:23:10;94452.09;;;25.44;61.24
22257;BME280;11297;42.686;23.374;2022-08-21T05:25:36;94453.25;;;25.65;60.15
22257;BME280;11297;42.686;23.374;2022-08-21T05:28:03;94450.63;;;25.85;60.19
22257;BME280;11297;42.686;23.374;2022-08-21T05:30:28;94451.25;;;25.92;59.52
22257;BME280;11297;42.686;23.374;2022-08-21T05:32:58;94459.25;;;26.11;58.67
22257;BME280;11297;42.686;23.374;2022-08-21T05:35:25;94456.56;;;25.73;59.12
22257;BME280;11297;42.686;23.374;2022-08-21T05:37:51;94446.28;;;24.77;63.15
22257;BME280;11297;42.686;23.374;2022-08-21T05:40:16;94450.44;;;24.78;62.37
22257;BME280;11297;42.686;23.374;2022-08-21T05:42:43;94448.03;;;24.60;63.32
22257;BME280;11297;42.686;23.374;2022-08-21T05:45:08;94454.63;;;24.79;64.28
22257;BME280;11297;42.686;23.374;2022-08-21T05:47:34;94451.41;;;24.91;63.23
22257;BME280;11297;42.686;23.374;2022-08-21T05:49:59;94444.69;;;25.32;62.39
22257;BME280;11297;42.686;23.374;2022-08-21T05:52:24;94445.06;;;25.53;61.66
22257;BME280;11297;42.686;23.374;2022-08-21T05:54:50;94440.44;;;25.57;61.48
22257;BME280;11297;42.686;23.374;2022-08-21T05:57:18;94440.63;;;25.69;60.45
22257;BME280;11297;42.686;23.374;2022-08-21T05:59:44;94446.44;;;25.42;61.02
22257;BME280;11297;42.686;23.374;2022-08-21T06:02:10;94443.97;;;24.79;63.47
22257;BME280;11297;42.686;23.374;2022-08-21T06:04:39;94440.47;;;24.85;63.24
22257;BME280;11297;42.686;23.374;2022-08-21T06:07:06;94445.22;;;24.71;63.02
22257;BME280;11297;42.686;23.374;2022-08-21T06:09:32;94459.53;;;24.21;65.86
22257;BME280;11297;42.686;23.374;2022-08-21T06:11:58;94445.94;;;24.15;66.10
22257;BME280;11297;42.686;23.374;2022-08-21T06:14:23;94445.97;;;24.45;65.13
22257;BME280;11297;42.686;23.374;2022-08-21T06:16:49;94438.25;;;24.54;64.63
22257;BME280;11297;42.686;23.374;2022-08-21T06:19:14;94445.75;;;24.59;63.73
22257;BME280;11297;42.686;23.374;2022-08-21T06:21:40;94444.84;;;24.43;63.94
22257;BME280;11297;42.686;23.374;2022-08-21T06:24:05;94455.06;;;24.48;64.83
22257;BME280;11297;42.686;23.374;2022-08-21T06:26:32;94439.75;;;24.55;65.02
22257;BME280;11297;42.686;23.374;2022-08-21T06:28:57;94449.41;;;24.42;65.99
22257;BME280;11297;42.686;23.374;2022-08-21T06:31:25;94450.78;;;24.80;63.93
22257;BME280;11297;42.686;23.374;2022-08-21T06:33:52;94448.91;;;24.80;63.18
22257;BME280;11297;42.686;23.374;2022-08-21T06:36:18;94447.88;;;24.97;62.57
22257;BME280;11297;42.686;23.374;2022-08-21T06:38:46;94441.41;;;24.98;63.94
22257;BME280;11297;42.686;23.374;2022-08-21T06:41:11;94444.34;;;25.07;63.02
22257;BME280;11297;42.686;23.374;2022-08-21T06:43:37;94446.44;;;25.42;62.42
22257;BME280;11297;42.686;23.374;2022-08-21T06:46:02;94432.44;;;25.15;63.05
22257;BME280;11297;42.686;23.374;2022-08-21T06:48:28;94438.44;;;25.42;60.97
22257;BME280;11297;42.686;23.374;2022-08-21T06:50:56;94442.00;;;25.54;60.69
22257;BME280;11297;42.686;23.374;2022-08-21T06:53:21;94451.63;;;25.71;60.99
22257;BME280;11297;42.686;23.374;2022-08-21T06:55:47;94440.94;;;25.94;60.52
22257;BME280;11297;42.686;23.374;2022-08-21T06:58:13;94447.75;;;25.76;61.78
22257;BME280;11297;42.686;23.374;2022-08-21T07:00:41;94448.78;;;25.82;59.78
22257;BME280;11297;42.686;23.374;2022-08-21T07:03:07;94453.03;;;26.18;59.33
22257;BME280;11297;42.686;23.374;2022-08-21T07:05:40;94453.69;;;26.60;58.31
22257;BME280;11297;42.686;23.374;2022-08-21T07:08:06;94456.28;;;26.99;57.80
22257;BME280;11297;42.686;23.374;2022-08-21T07:10:31;94451.53;;;27.06;55.78
22257;BME280;11297;42.686;23.374;2022-08-21T07:12:56;94446.31;;;26.84;56.44
22257;BME280;11297;42.686;23.374;2022-08-21T07:15:22;94445.03;;;26.92;55.46
22257;BME280;11297;42.686;23.374;2022-08-21T07:17:47;94440.19;;;27.34;53.58
22257;BME280;11297;42.686;23.374;2022-08-21T07:20:12;94446.38;;;27.63;52.52
22257;BME280;11297;42.686;23.374;2022-08-21T07:22:38;94442.53;;;27.16;54.05
22257;BME280;11297;42.686;23.374;2022-08-21T07:25:06;94451.47;;;27.57;54.88
22257;BME280;11297;42.686;23.374;2022-08-21T07:27:32;94449.88;;;27.60;53.35
22257;BME280;11297;42.686;23.374;2022-08-21T07:29:57;94449.13;;;27.44;53.46
22257;BME280;11297;42.686;23.374;2022-08-21T07:32:23;94438.78;;;27.14;54.48
22257;BME280;11297;42.686;23.374;2022-08-21T07:34:49;94431.34;;;27.05;54.29
22257;BME280;11297;42.686;23.374;2022-08-21T07:37:14;94427.88;;;26.73;54.23
22257;BME280;11297;42.686;23.374;2022-08-21T07:39:40;94429.56;;;26.83;54.55
22257;BME280;11297;42.686;23.374;2022-08-21T07:42:05;94426.81;;;26.87;55.20
22257;BME280;11297;42.686;23.374;2022-08-21T07:44:31;94422.09;;;26.94;55.49
22257;BME280;11297;42.686;23.374;2022-08-21T07:46:56;94427.09;;;26.92;54.09
22257;BME280;11297;42.686;23.374;2022-08-21T07:49:22;94421.94;;;27.01;53.00
22257;BME280;11297;42.686;23.374;2022-08-21T07:51:47;94414.97;;;26.72;54.59
22257;BME280;11297;42.686;23.374;2022-08-21T07:54:13;94415.59;;;26.95;54.11
22257;BME280;11297;42.686;23.374;2022-08-21T07:56:38;94425.78;;;27.16;54.10
22257;BME280;11297;42.686;23.374;2022-08-21T07:59:03;94426.34;;;27.23;54.76
22257;BME280;11297;42.686;23.374;2022-08-21T08:01:29;94425.25;;;27.37;53.83
22257;BME280;11297;42.686;23.374;2022-08-21T08:03:55;94421.25;;;27.60;51.42
22257;BME280;11297;42.686;23.374;2022-08-21T08:06:21;94418.13;;;27.78;51.17
22257;BME280;11297;42.686;23.374;2022-08-21T08:08:47;94425.84;;;27.44;52.00
22257;BME280;11297;42.686;23.374;2022-08-21T08:11:12;94424.59;;;27.64;52.15
22257;BME280;11297;42.686;23.374;2022-08-21T08:13:48;94421.84;;;27.36;52.29
22257;BME280;11297;42.686;23.374;2022-08-21T08:16:15;94429.44;;;27.06;53.50
22257;BME280;11297;42.686;23.374;2022-08-21T08:18:40;94426.44;;;27.20;53.87
22257;BME280;11297;42.686;23.374;2022-08-21T08:21:07;94417.94;;;26.93;53.13
22257;BME280;11297;42.686;23.374;2022-08-21T08:23:33;94419.00;;;26.06;55.73
22257;BME280;11297;42.686;23.374;2022-08-21T08:26:00;94422.38;;;26.29;55.33
22257;BME280;11297;42.686;23.374;2022-08-21T08:28:27;94422.63;;;26.35;55.61
22257;BME280;11297;42.686;23.374;2022-08-21T08:30:53;94432.69;;;26.62;55.36
22257;BME280;11297;42.686;23.374;2022-08-21T08:33:18;94423.34;;;26.54;54.85
22257;BME280;11297;42.686;23.374;2022-08-21T08:35:47;94424.81;;;26.40;55.79
22257;BME280;11297;42.686;23.374;2022-08-21T08:38:13;94425.28;;;26.35;55.79
22257;BME280;11297;42.686;23.374;2022-08-21T08:43:13;94432.13;;;26.36;55.34
22257;BME280;11297;42.686;23.374;2022-08-21T08:45:42;94426.81;;;26.36;55.95
22257;BME280;11297;42.686;23.374;2022-08-21T08:48:13;94434.78;;;26.36;56.86
22257;BME280;11297;42.686;23.374;2022-08-21T08:50:49;94427.72;;;26.26;57.57
22257;BME280;11297;42.686;23.374;2022-08-21T08:53:22;94424.66;;;26.47;56.64
22257;BME280;11297;42.686;23.374;2022-08-21T08:55:51;94424.25;;;26.48;56.22
22257;BME280;11297;42.686;23.374;2022-08-21T08:58:24;94424.47;;;26.38;56.06
22257;BME280;11297;42.686;23.374;2022-08-21T09:00:53;94417.78;;;26.10;56.58
22257;BME280;11297;42.686;23.374;2022-08-21T09:03:22;94415.13;;;26.30;56.22
22257;BME280;11297;42.686;23.374;2022-08-21T09:11:27;94404.28;;;26.56;55.74
22257;BME280;11297;42.686;23.374;2022-08-21T09:19:59;94399.50;;;27.14;54.24
22257;BME280;11297;42.686;23.374;2022-08-21T09:25:32;94388.09;;;27.14;53.63
22257;BME280;11297;42.686;23.374;2022-08-21T09:27:58;94388.16;;;27.26;53.64
22257;BME280;11297;42.686;23.374;2022-08-21T09:30:30;94385.41;;;27.30;54.18
22257;BME280;11297;42.686;23.374;2022-08-21T09:32:56;94383.00;;;27.19;54.41
22257;BME280;11297;42.686;23.374;2022-08-21T09:35:22;94383.03;;;27.63;53.27
22257;BME280;11297;42.686;23.374;2022-08-21T09:38:04;94386.53;;;27.60;52.62
22257;BME280;11297;42.686;23.374;2022-08-21T09:43:18;94381.50;;;27.91;51.71
22257;BME280;11297;42.686;23.374;2022-08-21T09:45:46;94388.91;;;27.99;51.95
22257;BME280;11297;42.686;23.374;2022-08-21T09:48:19;94380.59;;;27.69;51.17
22257;BME280;11297;42.686;23.374;2022-08-21T09:50:45;94379.19;;;27.48;51.72
22257;BME280;11297;42.686;23.374;2022-08-21T09:53:31;94389.38;;;27.53;51.99
22257;BME280;11297;42.686;23.374;2022-08-21T09:55:59;94380.88;;;27.58;51.24
22257;BME280;11297;42.686;23.374;2022-08-21T09:58:50;94376.56;;;27.77;51.14
22257;BME280;11297;42.686;23.374;2022-08-21T10:01:21;94366.97;;;27.51;51.04
22257;BME280;11297;42.686;23.374;2022-08-21T10:03:47;94374.22;;;27.35;51.55
22257;BME280;11297;42.686;23.374;2022-08-21T10:06:26;94367.91;;;26.97;52.34
22257;BME280;11297;42.686;23.374;2022-08-21T10:09:08;94363.31;;;26.82;53.24
22257;BME280;11297;42.686;23.374;2022-08-21T10:11:35;94365.53;;;26.67;53.56
22257;BME280;11297;42.686;23.374;2022-08-21T10:19:45;94368.88;;;26.55;54.73
22257;BME280;11297;42.686;23.374;2022-08-21T10:22:38;94352.78;;;26.43;54.67
22257;BME280;11297;42.686;23.374;2022-08-21T10:39:27;94351.81;;;27.16;52.65
22257;BME280;11297;42.686;23.374;2022-08-21T10:45:26;94337.50;;;27.39;51.69
22257;BME280;11297;42.686;23.374;2022-08-21T10:47:57;94342.66;;;27.45;52.22
22257;BME280;11297;42.686;23.374;2022-08-21T10:50:39;94335.41;;;27.74;50.70
22257;BME280;11297;42.686;23.374;2022-08-21T10:56:17;94330.94;;;28.12;50.79
22257;BME280;11297;42.686;23.374;2022-08-21T10:59:21;94323.28;;;28.39;50.00
22257;BME280;11297;42.686;23.374;2022-08-21T11:01:54;94316.84;;;28.61;49.71
22257;BME280;11297;42.686;23.374;2022-08-21T11:07:22;94304.50;;;28.88;48.94
22257;BME280;11297;42.686;23.374;2022-08-21T11:09:47;94300.47;;;29.17;47.57
22257;BME280;11297;42.686;23.374;2022-08-21T11:12:19;94298.41;;;29.34;48.00
22257;BME280;11297;42.686;23.374;2022-08-21T11:18:38;94285.03;;;29.34;45.80
22257;BME280;11297;42.686;23.374;2022-08-21T11:23:45;94280.28;;;29.38;46.98
22257;BME280;11297;42.686;23.374;2022-08-21T11:26:26;94285.47;;;29.20;46.58
22257;BME280;11297;42.686;23.374;2022-08-21T11:28:59;94288.91;;;28.62;48.61
22257;BME280;11297;42.686;23.374;2022-08-21T11:34:10;94284.97;;;28.42;49.94
22257;BME280;11297;42.686;23.374;2022-08-21T11:50:28;94290.44;;;28.26;47.67
22257;BME280;11297;42.686;23.374;2022-08-21T11:53:14;94280.38;;;28.30;46.76
22257;BME280;11297;42.686;23.374;2022-08-21T11:56:05;94283.38;;;28.32;47.33
22257;BME280;11297;42.686;23.374;2022-08-21T11:58:44;94283.34;;;28.44;46.82
22257;BME280;11297;42.686;23.374;2022-08-21T12:01:22;94285.31;;;28.31;48.50
22257;BME280;11297;42.686;23.374;2022-08-21T12:03:56;94279.63;;;28.42;48.70
22257;BME280;11297;42.686;23.374;2022-08-21T12:06:38;94274.81;;;28.49;47.57
22257;BME280;11297;42.686;23.374;2022-08-21T12:09:10;94276.97;;;28.42;47.25
22257;BME280;11297;42.686;23.374;2022-08-21T12:11:47;94261.88;;;28.35;47.92
22257;BME280;11297;42.686;23.374;2022-08-21T12:14:16;94252.03;;;28.32;48.59
22257;BME280;11297;42.686;23.374;2022-08-21T12:16:47;94256.28;;;28.54;46.52
22257;BME280;11297;42.686;23.374;2022-08-21T12:24:39;94270.34;;;28.21;47.83
22257;BME280;11297;42.686;23.374;2022-08-21T12:27:27;94275.13;;;28.14;48.41
22257;BME280;11297;42.686;23.374;2022-08-21T12:30:05;94272.00;;;28.03;48.03
22257;BME280;11297;42.686;23.374;2022-08-21T12:35:15;94276.91;;;27.92;48.91
22257;BME280;11297;42.686;23.374;2022-08-21T12:37:48;94276.72;;;27.99;47.63
22257;BME280;11297;42.686;23.374;2022-08-21T12:40:25;94269.22;;;27.94;48.82
22257;BME280;11297;42.686;23.374;2022-08-21T12:42:58;94270.38;;;27.81;49.22
22257;BME280;11297;42.686;23.374;2022-08-21T12:45:34;94270.94;;;27.88;49.43
22257;BME280;11297;42.686;23.374;2022-08-21T12:48:26;94273.69;;;27.72;48.76
22257;BME280;11297;42.686;23.374;2022-08-21T12:53:42;94270.34;;;27.68;49.68
22257;BME280;11297;42.686;23.374;2022-08-21T12:56:12;94267.97;;;27.58;49.75
22257;BME280;11297;42.686;23.374;2022-08-21T12:58:43;94261.38;;;27.62;49.69
22257;BME280;11297;42.686;23.374;2022-08-21T13:01:43;94266.00;;;27.46;50.26
22257;BME280;11297;42.686;23.374;2022-08-21T13:04:15;94261.09;;;27.44;49.78
22257;BME280;11297;42.686;23.374;2022-08-21T13:06:46;94253.03;;;27.32;50.57
22257;BME280;11297;42.686;23.374;2022-08-21T13:09:15;94248.59;;;27.13;50.30
22257;BME280;11297;42.686;23.374;2022-08-21T13:11:44;94251.69;;;27.12;50.66
22257;BME280;11297;42.686;23.374;2022-08-21T13:14:29;94254.47;;;27.08;51.57
22257;BME280;11297;42.686;23.374;2022-08-21T13:16:57;94258.22;;;27.11;51.46
22257;BME280;11297;42.686;23.374;2022-08-21T13:19:23;94267.00;;;27.24;51.03
22257;BME280;11297;42.686;23.374;2022-08-21T13:21:49;94256.25;;;27.27;51.37
22257;BME280;11297;42.686;23.374;2022-08-21T13:26:50;94246.44;;;27.65;50.52
22257;BME280;11297;42.686;23.374;2022-08-21T13:29:18;94236.84;;;27.67;50.61
22257;BME280;11297;42.686;23.374;2022-08-21T13:31:58;94226.34;;;27.60;50.49
22257;BME280;11297;42.686;23.374;2022-08-21T13:34:28;94228.47;;;27.65;51.12
22257;BME280;11297;42.686;23.374;2022-08-21T13:36:58;94212.69;;;27.58;50.80
22257;BME280;11297;42.686;23.374;2022-08-21T13:39:24;94214.16;;;27.59;51.39
22257;BME280;11297;42.686;23.374;2022-08-21T13:41:55;94219.09;;;27.73;51.00
22257;BME280;11297;42.686;23.374;2022-08-21T13:44:24;94228.94;;;27.89;51.00
22257;BME280;11297;42.686;23.374;2022-08-21T13:46:58;94237.56;;;27.80;51.02
22257;BME280;11297;42.686;23.374;2022-08-21T13:49:31;94239.81;;;27.69;51.00
22257;BME280;11297;42.686;23.374;2022-08-21T13:51:57;94234.59;;;27.78;50.43
22257;BME280;11297;42.686;23.374;2022-08-21T13:54:32;94235.56;;;27.84;50.61
22257;BME280;11297;42.686;23.374;2022-08-21T13:56:58;94228.16;;;27.63;50.69
22257;BME280;11297;42.686;23.374;2022-08-21T13:59:26;94237.34;;;27.62;51.51
22257;BME280;11297;42.686;23.374;2022-08-21T14:01:55;94232.97;;;27.68;51.31
22257;BME280;11297;42.686;23.374;2022-08-21T14:04:49;94218.13;;;27.80;51.23
22257;BME280;11297;42.686;23.374;2022-08-21T14:07:18;94219.00;;;27.77;50.37
22257;BME280;11297;42.686;23.374;2022-08-21T14:09:46;94221.03;;;27.85;50.68
22257;BME280;11297;42.686;23.374;2022-08-21T14:12:19;94221.78;;;27.98;50.78
22257;BME280;11297;42.686;23.374;2022-08-21T14:14:48;94223.47;;;27.92;51.42
22257;BME280;11297;42.686;23.374;2022-08-21T14:17:26;94212.47;;;27.90;50.51
22257;BME280;11297;42.686;23.374;2022-08-21T14:19:52;94214.19;;;27.96;50.99
22257;BME280;11297;42.686;23.374;2022-08-21T14:25:10;94217.09;;;27.90;52.19
22257;BME280;11297;42.686;23.374;2022-08-21T14:27:40;94223.28;;;27.87;52.26
22257;BME280;11297;42.686;23.374;2022-08-21T14:30:27;94227.31;;;27.79;52.51
22257;BME280;11297;42.686;23.374;2022-08-21T14:32:53;94220.16;;;27.76;51.85